sensor_id;sensor_type;location;lat;lon;timestamp;P1;durP1;ratioP1;P2;durP2;ratioP2
46505;SDS011;32220;49.808;9.968;2022-07-09T00:00:13;1.07;;;0.60;;
46505;SDS011;32220;49.808;9.968;2022-07-09T00:02:41;0.63;;;0.60;;
46505;SDS011;32220;49.808;9.968;2022-07-09T00:05:09;0.57;;;0.50;;
46505;SDS011;32220;49.808;9.968;2022-07-09T00:07:38;0.43;;;0.43;;
46505;SDS011;32220;49.808;9.968;2022-07-09T00:10:06;0.73;;;0.60;;
46505;SDS011;32220;49.808;9.968;2022-07-09T00:12:34;0.90;;;0.60;;
46505;SDS011;32220;49.808;9.968;2022-07-09T00:15:04;0.50;;;0.50;;
46505;SDS011;32220;49.808;9.968;2022-07-09T00:17:32;0.97;;;0.70;;
46505;SDS011;32220;49.808;9.968;2022-07-09T00:20:00;0.67;;;0.50;;
46505;SDS011;32220;49.808;9.968;2022-07-09T00:22:31;0.80;;;0.40;;
46505;SDS011;32220;49.808;9.968;2022-07-09T00:24:58;0.67;;;0.60;;
46505;SDS011;32220;49.808;9.968;2022-07-09T00:27:27;0.60;;;0.60;;
46505;SDS011;32220;49.808;9.968;2022-07-09T00:29:55;0.60;;;0.60;;
46505;SDS011;32220;49.808;9.968;2022-07-09T00:32:24;0.57;;;0.57;;
46505;SDS011;32220;49.808;9.968;2022-07-09T00:34:51;0.83;;;0.70;;
46505;SDS011;32220;49.808;9.968;2022-07-09T00:37:19;0.47;;;0.47;;
46505;SDS011;32220;49.808;9.968;2022-07-09T00:39:47;0.80;;;0.80;;
46505;SDS011;32220;49.808;9.968;2022-07-09T00:42:15;1.23;;;0.80;;
46505;SDS011;32220;49.808;9.968;2022-07-09T00:44:43;2.00;;;0.80;;
46505;SDS011;32220;49.808;9.968;2022-07-09T00:47:10;1.07;;;0.70;;
46505;SDS011;32220;49.808;9.968;2022-07-09T00:49:40;1.83;;;0.83;;
46505;SDS011;32220;49.808;9.968;2022-07-09T00:52:09;1.27;;;0.60;;
46505;SDS011;32220;49.808;9.968;2022-07-09T00:54:38;0.70;;;0.70;;
46505;SDS011;32220;49.808;9.968;2022-07-09T00:57:08;1.03;;;0.80;;
46505;SDS011;32220;49.808;9.968;2022-07-09T00:59:37;0.70;;;0.70;;
46505;SDS011;32220;49.808;9.968;2022-07-09T01:02:06;0.70;;;0.70;;
46505;SDS011;32220;49.808;9.968;2022-07-09T01:04:35;0.60;;;0.60;;
46505;SDS011;32220;49.808;9.968;2022-07-09T01:07:06;0.60;;;0.60;;
46505;SDS011;32220;49.808;9.968;2022-07-09T01:09:34;1.20;;;0.70;;
46505;SDS011;32220;49.808;9.968;2022-07-09T01:12:02;0.87;;;0.70;;
46505;SDS011;32220;49.808;9.968;2022-07-09T01:14:31;1.33;;;0.70;;
46505;SDS011;32220;49.808;9.968;2022-07-09T01:16:58;2.40;;;0.70;;
46505;SDS011;32220;49.808;9.968;2022-07-09T01:19:27;2.03;;;0.83;;
46505;SDS011;32220;49.808;9.968;2022-07-09T01:21:57;1.43;;;0.60;;
46505;SDS011;32220;49.808;9.968;2022-07-09T01:24:25;0.80;;;0.80;;
46505;SDS011;32220;49.808;9.968;2022-07-09T01:26:53;0.90;;;0.70;;
46505;SDS011;32220;49.808;9.968;2022-07-09T01:29:21;0.60;;;0.60;;
46505;SDS011;32220;49.808;9.968;2022-07-09T01:31:49;0.87;;;0.60;;
46505;SDS011;32220;49.808;9.968;2022-07-09T01:34:17;0.70;;;0.70;;
46505;SDS011;32220;49.808;9.968;2022-07-09T01:36:45;1.23;;;0.80;;
46505;SDS011;32220;49.808;9.968;2022-07-09T01:39:14;1.33;;;0.80;;
46505;SDS011;32220;49.808;9.968;2022-07-09T01:41:42;0.70;;;0.70;;
46505;SDS011;32220;49.808;9.968;2022-07-09T01:44:10;0.87;;;0.60;;
46505;SDS011;32220;49.808;9.968;2022-07-09T01:46:38;1.33;;;0.90;;
46505;SDS011;32220;49.808;9.968;2022-07-09T01:49:06;0.67;;;0.60;;
46505;SDS011;32220;49.808;9.968;2022-07-09T01:51:33;0.73;;;0.73;;
46505;SDS011;32220;49.808;9.968;2022-07-09T01:54:02;0.77;;;0.70;;
46505;SDS011;32220;49.808;9.968;2022-07-09T01:56:31;1.10;;;1.00;;
46505;SDS011;32220;49.808;9.968;2022-07-09T01:59:01;1.43;;;0.67;;
46505;SDS011;32220;49.808;9.968;2022-07-09T02:01:28;0.87;;;0.87;;
46505;SDS011;32220;49.808;9.968;2022-07-09T02:03:56;1.00;;;0.80;;
46505;SDS011;32220;49.808;9.968;2022-07-09T02:06:24;0.80;;;0.80;;
46505;SDS011;32220;49.808;9.968;2022-07-09T02:08:51;0.80;;;0.80;;
46505;SDS011;32220;49.808;9.968;2022-07-09T02:11:19;1.37;;;0.87;;
46505;SDS011;32220;49.808;9.968;2022-07-09T02:13:48;0.70;;;0.70;;
46505;SDS011;32220;49.808;9.968;2022-07-09T02:16:16;0.93;;;0.80;;
46505;SDS011;32220;49.808;9.968;2022-07-09T02:18:44;0.70;;;0.70;;
46505;SDS011;32220;49.808;9.968;2022-07-09T02:21:11;0.73;;;0.70;;
46505;SDS011;32220;49.808;9.968;2022-07-09T02:23:39;0.70;;;0.70;;
46505;SDS011;32220;49.808;9.968;2022-07-09T02:26:07;0.70;;;0.70;;
46505;SDS011;32220;49.808;9.968;2022-07-09T02:28:34;1.67;;;0.93;;
46505;SDS011;32220;49.808;9.968;2022-07-09T02:31:04;0.83;;;0.80;;
46505;SDS011;32220;49.808;9.968;2022-07-09T02:33:31;0.83;;;0.70;;
46505;SDS011;32220;49.808;9.968;2022-07-09T02:35:59;1.10;;;0.73;;
46505;SDS011;32220;49.808;9.968;2022-07-09T02:38:27;1.10;;;0.90;;
46505;SDS011;32220;49.808;9.968;2022-07-09T02:40:55;1.27;;;0.90;;
46505;SDS011;32220;49.808;9.968;2022-07-09T02:43:22;1.13;;;0.80;;
46505;SDS011;32220;49.808;9.968;2022-07-09T02:45:50;1.13;;;0.80;;
46505;SDS011;32220;49.808;9.968;2022-07-09T02:48:22;1.53;;;1.03;;
46505;SDS011;32220;49.808;9.968;2022-07-09T02:50:51;0.63;;;0.63;;
46505;SDS011;32220;49.808;9.968;2022-07-09T02:53:19;1.10;;;1.00;;
46505;SDS011;32220;49.808;9.968;2022-07-09T02:55:47;1.07;;;0.93;;
46505;SDS011;32220;49.808;9.968;2022-07-09T02:58:15;1.87;;;0.90;;
46505;SDS011;32220;49.808;9.968;2022-07-09T03:00:42;0.90;;;0.90;;
46505;SDS011;32220;49.808;9.968;2022-07-09T03:03:10;1.00;;;1.00;;
46505;SDS011;32220;49.808;9.968;2022-07-09T03:05:39;1.20;;;0.90;;
46505;SDS011;32220;49.808;9.968;2022-07-09T03:08:07;0.90;;;0.80;;
46505;SDS011;32220;49.808;9.968;2022-07-09T03:10:35;1.10;;;1.00;;
46505;SDS011;32220;49.808;9.968;2022-07-09T03:13:03;0.97;;;0.80;;
46505;SDS011;32220;49.808;9.968;2022-07-09T03:15:31;0.97;;;0.97;;
46505;SDS011;32220;49.808;9.968;2022-07-09T03:17:59;0.60;;;0.60;;
46505;SDS011;32220;49.808;9.968;2022-07-09T03:20:26;0.90;;;0.90;;
46505;SDS011;32220;49.808;9.968;2022-07-09T03:22:56;0.90;;;0.80;;
46505;SDS011;32220;49.808;9.968;2022-07-09T03:25:23;1.30;;;0.93;;
46505;SDS011;32220;49.808;9.968;2022-07-09T03:27:55;1.50;;;0.90;;
46505;SDS011;32220;49.808;9.968;2022-07-09T03:30:23;1.17;;;0.83;;
46505;SDS011;32220;49.808;9.968;2022-07-09T03:32:51;0.73;;;0.73;;
46505;SDS011;32220;49.808;9.968;2022-07-09T03:35:19;2.30;;;1.10;;
46505;SDS011;32220;49.808;9.968;2022-07-09T03:37:46;1.17;;;0.70;;
46505;SDS011;32220;49.808;9.968;2022-07-09T03:40:16;2.40;;;1.17;;
46505;SDS011;32220;49.808;9.968;2022-07-09T03:42:43;0.83;;;0.80;;
46505;SDS011;32220;49.808;9.968;2022-07-09T03:45:11;1.07;;;0.90;;
46505;SDS011;32220;49.808;9.968;2022-07-09T03:47:39;1.03;;;0.87;;
46505;SDS011;32220;49.808;9.968;2022-07-09T03:50:07;2.20;;;1.20;;
46505;SDS011;32220;49.808;9.968;2022-07-09T03:52:35;1.33;;;0.70;;
46505;SDS011;32220;49.808;9.968;2022-07-09T03:55:03;1.13;;;0.90;;
46505;SDS011;32220;49.808;9.968;2022-07-09T03:57:33;1.07;;;1.00;;
46505;SDS011;32220;49.808;9.968;2022-07-09T04:00:00;1.50;;;0.87;;
46505;SDS011;32220;49.808;9.968;2022-07-09T04:02:38;1.00;;;0.90;;
46505;SDS011;32220;49.808;9.968;2022-07-09T04:05:06;1.43;;;0.90;;
46505;SDS011;32220;49.808;9.968;2022-07-09T04:07:35;1.10;;;0.97;;
46505;SDS011;32220;49.808;9.968;2022-07-09T04:10:06;1.00;;;0.83;;
46505;SDS011;32220;49.808;9.968;2022-07-09T04:12:35;2.13;;;1.20;;
46505;SDS011;32220;49.808;9.968;2022-07-09T04:15:03;1.67;;;0.90;;
46505;SDS011;32220;49.808;9.968;2022-07-09T04:17:32;0.97;;;0.90;;
46505;SDS011;32220;49.808;9.968;2022-07-09T04:20:01;3.33;;;1.10;;
46505;SDS011;32220;49.808;9.968;2022-07-09T04:22:29;1.00;;;0.90;;
46505;SDS011;32220;49.808;9.968;2022-07-09T04:24:57;1.57;;;1.13;;
46505;SDS011;32220;49.808;9.968;2022-07-09T04:27:25;0.83;;;0.83;;
46505;SDS011;32220;49.808;9.968;2022-07-09T04:29:54;0.97;;;0.97;;
46505;SDS011;32220;49.808;9.968;2022-07-09T04:32:22;1.03;;;0.93;;
46505;SDS011;32220;49.808;9.968;2022-07-09T04:34:49;1.30;;;1.20;;
46505;SDS011;32220;49.808;9.968;2022-07-09T04:37:17;1.27;;;1.10;;
46505;SDS011;32220;49.808;9.968;2022-07-09T04:39:45;1.10;;;1.00;;
46505;SDS011;32220;49.808;9.968;2022-07-09T04:42:13;1.37;;;1.20;;
46505;SDS011;32220;49.808;9.968;2022-07-09T04:44:41;1.23;;;1.10;;
46505;SDS011;32220;49.808;9.968;2022-07-09T04:47:10;1.00;;;0.93;;
46505;SDS011;32220;49.808;9.968;2022-07-09T04:49:38;3.23;;;1.23;;
46505;SDS011;32220;49.808;9.968;2022-07-09T04:52:06;3.03;;;1.33;;
46505;SDS011;32220;49.808;9.968;2022-07-09T04:54:34;1.27;;;1.10;;
46505;SDS011;32220;49.808;9.968;2022-07-09T04:57:02;1.50;;;1.20;;
46505;SDS011;32220;49.808;9.968;2022-07-09T04:59:31;2.50;;;1.07;;
46505;SDS011;32220;49.808;9.968;2022-07-09T05:01:58;1.53;;;1.00;;
46505;SDS011;32220;49.808;9.968;2022-07-09T05:04:28;2.17;;;1.17;;
46505;SDS011;32220;49.808;9.968;2022-07-09T05:06:56;1.20;;;1.10;;
46505;SDS011;32220;49.808;9.968;2022-07-09T05:09:23;1.30;;;1.10;;
46505;SDS011;32220;49.808;9.968;2022-07-09T05:11:51;2.77;;;1.10;;
46505;SDS011;32220;49.808;9.968;2022-07-09T05:14:20;1.10;;;0.97;;
46505;SDS011;32220;49.808;9.968;2022-07-09T05:16:48;1.27;;;1.00;;
46505;SDS011;32220;49.808;9.968;2022-07-09T05:19:15;1.23;;;1.10;;
46505;SDS011;32220;49.808;9.968;2022-07-09T05:21:45;2.10;;;1.00;;
46505;SDS011;32220;49.808;9.968;2022-07-09T05:24:12;1.23;;;1.00;;
46505;SDS011;32220;49.808;9.968;2022-07-09T05:26:41;1.37;;;0.90;;
46505;SDS011;32220;49.808;9.968;2022-07-09T05:29:08;3.10;;;1.00;;
46505;SDS011;32220;49.808;9.968;2022-07-09T05:31:36;3.20;;;1.20;;
46505;SDS011;32220;49.808;9.968;2022-07-09T05:34:04;1.53;;;1.43;;
46505;SDS011;32220;49.808;9.968;2022-07-09T05:36:34;1.37;;;0.90;;
46505;SDS011;32220;49.808;9.968;2022-07-09T05:39:03;0.80;;;0.80;;
46505;SDS011;32220;49.808;9.968;2022-07-09T05:41:33;1.50;;;0.97;;
46505;SDS011;32220;49.808;9.968;2022-07-09T05:44:01;1.10;;;1.10;;
46505;SDS011;32220;49.808;9.968;2022-07-09T05:46:29;1.33;;;1.23;;
46505;SDS011;32220;49.808;9.968;2022-07-09T05:48:57;2.03;;;1.10;;
46505;SDS011;32220;49.808;9.968;2022-07-09T05:51:25;1.13;;;0.80;;
46505;SDS011;32220;49.808;9.968;2022-07-09T05:53:52;1.20;;;1.10;;
46505;SDS011;32220;49.808;9.968;2022-07-09T05:56:22;1.30;;;0.90;;
46505;SDS011;32220;49.808;9.968;2022-07-09T05:58:49;1.13;;;0.80;;
46505;SDS011;32220;49.808;9.968;2022-07-09T06:01:17;1.77;;;1.10;;
46505;SDS011;32220;49.808;9.968;2022-07-09T06:03:45;1.10;;;0.83;;
46505;SDS011;32220;49.808;9.968;2022-07-09T06:06:13;2.60;;;1.20;;
46505;SDS011;32220;49.808;9.968;2022-07-09T06:08:41;2.97;;;1.17;;
46505;SDS011;32220;49.808;9.968;2022-07-09T06:11:08;1.60;;;1.00;;
46505;SDS011;32220;49.808;9.968;2022-07-09T06:13:38;1.57;;;0.97;;
46505;SDS011;32220;49.808;9.968;2022-07-09T06:16:06;2.20;;;1.10;;
46505;SDS011;32220;49.808;9.968;2022-07-09T06:18:34;1.60;;;1.00;;
46505;SDS011;32220;49.808;9.968;2022-07-09T06:21:02;1.33;;;0.90;;
46505;SDS011;32220;49.808;9.968;2022-07-09T06:23:30;1.03;;;0.93;;
46505;SDS011;32220;49.808;9.968;2022-07-09T06:25:58;3.43;;;1.37;;
46505;SDS011;32220;49.808;9.968;2022-07-09T06:28:25;1.20;;;0.80;;
46505;SDS011;32220;49.808;9.968;2022-07-09T06:30:54;1.37;;;0.87;;
46505;SDS011;32220;49.808;9.968;2022-07-09T06:33:22;1.50;;;0.90;;
46505;SDS011;32220;49.808;9.968;2022-07-09T06:35:50;1.10;;;1.00;;
46505;SDS011;32220;49.808;9.968;2022-07-09T06:38:18;1.07;;;0.90;;
46505;SDS011;32220;49.808;9.968;2022-07-09T06:40:46;1.90;;;1.40;;
46505;SDS011;32220;49.808;9.968;2022-07-09T06:43:14;1.13;;;1.00;;
46505;SDS011;32220;49.808;9.968;2022-07-09T06:45:46;0.80;;;0.80;;
46505;SDS011;32220;49.808;9.968;2022-07-09T06:48:15;0.80;;;0.80;;
46505;SDS011;32220;49.808;9.968;2022-07-09T06:50:43;1.13;;;1.03;;
46505;SDS011;32220;49.808;9.968;2022-07-09T06:53:11;1.17;;;0.90;;
46505;SDS011;32220;49.808;9.968;2022-07-09T06:55:38;0.83;;;0.70;;
46505;SDS011;32220;49.808;9.968;2022-07-09T06:58:06;1.23;;;0.97;;
46505;SDS011;32220;49.808;9.968;2022-07-09T07:00:34;1.43;;;0.97;;
46505;SDS011;32220;49.808;9.968;2022-07-09T07:03:01;1.17;;;0.77;;
46505;SDS011;32220;49.808;9.968;2022-07-09T07:05:31;1.30;;;0.90;;
46505;SDS011;32220;49.808;9.968;2022-07-09T07:07:59;1.47;;;1.30;;
46505;SDS011;32220;49.808;9.968;2022-07-09T07:10:26;1.73;;;1.13;;
46505;SDS011;32220;49.808;9.968;2022-07-09T07:12:54;1.37;;;1.10;;
46505;SDS011;32220;49.808;9.968;2022-07-09T07:15:22;1.83;;;1.00;;
46505;SDS011;32220;49.808;9.968;2022-07-09T07:17:50;1.20;;;1.00;;
46505;SDS011;32220;49.808;9.968;2022-07-09T07:20:18;1.33;;;1.23;;
46505;SDS011;32220;49.808;9.968;2022-07-09T07:22:50;1.30;;;1.20;;
46505;SDS011;32220;49.808;9.968;2022-07-09T07:25:18;1.90;;;1.43;;
46505;SDS011;32220;49.808;9.968;2022-07-09T07:27:45;2.67;;;1.40;;
46505;SDS011;32220;49.808;9.968;2022-07-09T07:30:13;1.83;;;1.30;;
46505;SDS011;32220;49.808;9.968;2022-07-09T07:32:41;1.57;;;1.00;;
46505;SDS011;32220;49.808;9.968;2022-07-09T07:35:09;3.90;;;1.17;;
46505;SDS011;32220;49.808;9.968;2022-07-09T07:37:36;2.23;;;1.33;;
46505;SDS011;32220;49.808;9.968;2022-07-09T07:40:07;0.83;;;0.73;;
46505;SDS011;32220;49.808;9.968;2022-07-09T07:42:35;2.10;;;1.50;;
46505;SDS011;32220;49.808;9.968;2022-07-09T07:45:03;2.27;;;1.07;;
46505;SDS011;32220;49.808;9.968;2022-07-09T07:47:32;1.60;;;1.43;;
46505;SDS011;32220;49.808;9.968;2022-07-09T07:49:59;3.93;;;1.40;;
46505;SDS011;32220;49.808;9.968;2022-07-09T07:52:27;3.53;;;1.57;;
46505;SDS011;32220;49.808;9.968;2022-07-09T07:54:55;1.37;;;1.17;;
46505;SDS011;32220;49.808;9.968;2022-07-09T07:57:24;1.50;;;1.40;;
46505;SDS011;32220;49.808;9.968;2022-07-09T07:59:52;2.30;;;1.70;;
46505;SDS011;32220;49.808;9.968;2022-07-09T08:02:19;3.53;;;1.80;;
46505;SDS011;32220;49.808;9.968;2022-07-09T08:04:47;2.20;;;1.47;;
46505;SDS011;32220;49.808;9.968;2022-07-09T08:07:15;1.20;;;1.13;;
46505;SDS011;32220;49.808;9.968;2022-07-09T08:09:43;2.57;;;1.20;;
46505;SDS011;32220;49.808;9.968;2022-07-09T08:12:11;3.73;;;1.63;;
46505;SDS011;32220;49.808;9.968;2022-07-09T08:14:40;1.43;;;1.10;;
46505;SDS011;32220;49.808;9.968;2022-07-09T08:17:08;1.87;;;1.53;;
46505;SDS011;32220;49.808;9.968;2022-07-09T08:19:35;3.50;;;1.30;;
46505;SDS011;32220;49.808;9.968;2022-07-09T08:22:04;1.83;;;1.10;;
46505;SDS011;32220;49.808;9.968;2022-07-09T08:24:31;2.07;;;1.13;;
46505;SDS011;32220;49.808;9.968;2022-07-09T08:26:59;1.27;;;1.10;;
46505;SDS011;32220;49.808;9.968;2022-07-09T08:29:27;1.63;;;1.40;;
46505;SDS011;32220;49.808;9.968;2022-07-09T08:31:56;1.40;;;1.20;;
46505;SDS011;32220;49.808;9.968;2022-07-09T08:34:24;2.10;;;1.27;;
46505;SDS011;32220;49.808;9.968;2022-07-09T08:36:52;1.70;;;1.23;;
46505;SDS011;32220;49.808;9.968;2022-07-09T08:39:20;1.90;;;1.20;;
46505;SDS011;32220;49.808;9.968;2022-07-09T08:41:47;1.33;;;1.10;;
46505;SDS011;32220;49.808;9.968;2022-07-09T08:44:17;0.80;;;0.63;;
46505;SDS011;32220;49.808;9.968;2022-07-09T08:46:47;1.57;;;1.17;;
46505;SDS011;32220;49.808;9.968;2022-07-09T08:49:16;1.10;;;1.00;;
46505;SDS011;32220;49.808;9.968;2022-07-09T08:51:44;1.00;;;0.90;;
46505;SDS011;32220;49.808;9.968;2022-07-09T08:54:13;1.90;;;1.27;;
46505;SDS011;32220;49.808;9.968;2022-07-09T08:56:42;3.33;;;1.50;;
46505;SDS011;32220;49.808;9.968;2022-07-09T08:59:10;2.47;;;1.47;;
46505;SDS011;32220;49.808;9.968;2022-07-09T09:01:38;3.43;;;1.50;;
46505;SDS011;32220;49.808;9.968;2022-07-09T09:04:05;1.40;;;1.00;;
46505;SDS011;32220;49.808;9.968;2022-07-09T09:06:37;3.07;;;1.00;;
46505;SDS011;32220;49.808;9.968;2022-07-09T09:09:07;0.90;;;0.87;;
46505;SDS011;32220;49.808;9.968;2022-07-09T09:11:37;0.90;;;0.90;;
46505;SDS011;32220;49.808;9.968;2022-07-09T09:14:05;1.10;;;0.90;;
46505;SDS011;32220;49.808;9.968;2022-07-09T09:16:40;1.07;;;0.70;;
46505;SDS011;32220;49.808;9.968;2022-07-09T09:19:09;0.77;;;0.77;;
46505;SDS011;32220;49.808;9.968;2022-07-09T09:21:38;0.90;;;0.70;;
46505;SDS011;32220;49.808;9.968;2022-07-09T09:24:06;1.00;;;0.90;;
46505;SDS011;32220;49.808;9.968;2022-07-09T09:26:34;0.90;;;0.90;;
46505;SDS011;32220;49.808;9.968;2022-07-09T09:29:03;0.93;;;0.93;;
46505;SDS011;32220;49.808;9.968;2022-07-09T09:31:32;2.13;;;1.17;;
46505;SDS011;32220;49.808;9.968;2022-07-09T09:34:10;0.90;;;0.90;;
46505;SDS011;32220;49.808;9.968;2022-07-09T09:36:41;1.20;;;0.90;;
46505;SDS011;32220;49.808;9.968;2022-07-09T09:39:11;0.90;;;0.90;;
46505;SDS011;32220;49.808;9.968;2022-07-09T09:41:41;0.70;;;0.70;;
46505;SDS011;32220;49.808;9.968;2022-07-09T09:44:10;0.90;;;0.90;;
46505;SDS011;32220;49.808;9.968;2022-07-09T09:46:40;1.67;;;0.90;;
46505;SDS011;32220;49.808;9.968;2022-07-09T09:49:10;1.93;;;1.00;;
46505;SDS011;32220;49.808;9.968;2022-07-09T09:51:44;1.10;;;1.00;;
46505;SDS011;32220;49.808;9.968;2022-07-09T09:54:15;1.37;;;1.20;;
46505;SDS011;32220;49.808;9.968;2022-07-09T09:56:43;1.20;;;1.10;;
46505;SDS011;32220;49.808;9.968;2022-07-09T09:59:11;1.70;;;1.27;;
46505;SDS011;32220;49.808;9.968;2022-07-09T10:01:40;1.43;;;1.20;;
46505;SDS011;32220;49.808;9.968;2022-07-09T10:04:08;3.00;;;1.23;;
46505;SDS011;32220;49.808;9.968;2022-07-09T10:06:37;1.70;;;1.07;;
46505;SDS011;32220;49.808;9.968;2022-07-09T10:09:07;1.40;;;1.27;;
46505;SDS011;32220;49.808;9.968;2022-07-09T10:11:38;1.90;;;1.30;;
46505;SDS011;32220;49.808;9.968;2022-07-09T10:14:07;2.73;;;2.13;;
46505;SDS011;32220;49.808;9.968;2022-07-09T10:16:36;1.77;;;1.23;;
46505;SDS011;32220;49.808;9.968;2022-07-09T10:19:05;1.37;;;1.27;;
46505;SDS011;32220;49.808;9.968;2022-07-09T10:21:34;2.70;;;1.70;;
46505;SDS011;32220;49.808;9.968;2022-07-09T10:24:03;1.40;;;1.30;;
46505;SDS011;32220;49.808;9.968;2022-07-09T10:29:20;1.23;;;1.13;;
46505;SDS011;32220;49.808;9.968;2022-07-09T10:31:48;1.70;;;1.60;;
46505;SDS011;32220;49.808;9.968;2022-07-09T10:34:24;1.67;;;1.50;;
46505;SDS011;32220;49.808;9.968;2022-07-09T10:37:10;1.53;;;1.43;;
46505;SDS011;32220;49.808;9.968;2022-07-09T10:39:37;1.57;;;1.40;;
46505;SDS011;32220;49.808;9.968;2022-07-09T10:42:10;1.50;;;1.30;;
46505;SDS011;32220;49.808;9.968;2022-07-09T10:44:46;1.67;;;1.57;;
46505;SDS011;32220;49.808;9.968;2022-07-09T10:47:15;1.53;;;1.33;;
46505;SDS011;32220;49.808;9.968;2022-07-09T10:49:43;2.03;;;1.70;;
46505;SDS011;32220;49.808;9.968;2022-07-09T10:52:11;1.43;;;1.33;;
46505;SDS011;32220;49.808;9.968;2022-07-09T10:54:45;2.13;;;1.37;;
46505;SDS011;32220;49.808;9.968;2022-07-09T10:57:15;1.83;;;1.43;;
46505;SDS011;32220;49.808;9.968;2022-07-09T10:59:46;1.87;;;1.53;;
46505;SDS011;32220;49.808;9.968;2022-07-09T11:02:18;2.73;;;1.40;;
46505;SDS011;32220;49.808;9.968;2022-07-09T11:04:50;1.53;;;1.30;;
46505;SDS011;32220;49.808;9.968;2022-07-09T11:07:19;1.77;;;1.67;;
46505;SDS011;32220;49.808;9.968;2022-07-09T11:09:48;2.50;;;1.63;;
46505;SDS011;32220;49.808;9.968;2022-07-09T11:12:19;1.77;;;1.67;;
46505;SDS011;32220;49.808;9.968;2022-07-09T11:14:49;2.97;;;1.60;;
46505;SDS011;32220;49.808;9.968;2022-07-09T11:17:18;1.87;;;1.50;;
46505;SDS011;32220;49.808;9.968;2022-07-09T11:19:47;2.20;;;2.00;;
46505;SDS011;32220;49.808;9.968;2022-07-09T11:22:15;1.83;;;1.47;;
46505;SDS011;32220;49.808;9.968;2022-07-09T11:24:43;1.97;;;1.87;;
46505;SDS011;32220;49.808;9.968;2022-07-09T11:27:11;2.27;;;1.90;;
46505;SDS011;32220;49.808;9.968;2022-07-09T11:29:45;1.73;;;1.60;;
46505;SDS011;32220;49.808;9.968;2022-07-09T11:32:15;1.87;;;1.77;;
46505;SDS011;32220;49.808;9.968;2022-07-09T11:34:50;1.80;;;1.70;;
46505;SDS011;32220;49.808;9.968;2022-07-09T11:37:22;2.00;;;1.90;;
46505;SDS011;32220;49.808;9.968;2022-07-09T11:39:50;2.43;;;2.00;;
46505;SDS011;32220;49.808;9.968;2022-07-09T11:42:19;1.67;;;1.57;;
46505;SDS011;32220;49.808;9.968;2022-07-09T11:44:55;2.87;;;2.27;;
46505;SDS011;32220;49.808;9.968;2022-07-09T11:47:31;2.50;;;1.90;;
46505;SDS011;32220;49.808;9.968;2022-07-09T11:50:04;2.00;;;1.90;;
46505;SDS011;32220;49.808;9.968;2022-07-09T11:52:34;1.77;;;1.67;;
46505;SDS011;32220;49.808;9.968;2022-07-09T11:55:02;3.10;;;2.90;;
46505;SDS011;32220;49.808;9.968;2022-07-09T11:57:33;1.90;;;1.80;;
46505;SDS011;32220;49.808;9.968;2022-07-09T12:00:05;1.83;;;1.73;;
46505;SDS011;32220;49.808;9.968;2022-07-09T12:02:40;2.30;;;2.10;;
46505;SDS011;32220;49.808;9.968;2022-07-09T12:05:08;1.70;;;1.60;;
46505;SDS011;32220;49.808;9.968;2022-07-09T12:07:36;1.70;;;1.60;;
46505;SDS011;32220;49.808;9.968;2022-07-09T12:10:05;1.70;;;1.60;;
46505;SDS011;32220;49.808;9.968;2022-07-09T12:12:34;2.03;;;1.60;;
46505;SDS011;32220;49.808;9.968;2022-07-09T12:15:05;1.57;;;1.47;;
46505;SDS011;32220;49.808;9.968;2022-07-09T12:17:34;1.70;;;1.60;;
46505;SDS011;32220;49.808;9.968;2022-07-09T12:20:04;1.30;;;1.30;;
46505;SDS011;32220;49.808;9.968;2022-07-09T12:22:33;1.80;;;1.50;;
46505;SDS011;32220;49.808;9.968;2022-07-09T12:25:01;2.03;;;1.38;;
46505;SDS011;32220;49.808;9.968;2022-07-09T12:27:29;1.70;;;1.60;;
46505;SDS011;32220;49.808;9.968;2022-07-09T12:29:56;1.67;;;1.30;;
46505;SDS011;32220;49.808;9.968;2022-07-09T12:32:26;1.80;;;1.70;;
46505;SDS011;32220;49.808;9.968;2022-07-09T12:34:53;1.75;;;1.65;;
46505;SDS011;32220;49.808;9.968;2022-07-09T12:37:21;1.60;;;1.50;;
46505;SDS011;32220;49.808;9.968;2022-07-09T12:39:49;1.40;;;1.30;;
46505;SDS011;32220;49.808;9.968;2022-07-09T12:42:19;1.93;;;1.70;;
46505;SDS011;32220;49.808;9.968;2022-07-09T12:44:46;2.63;;;2.00;;
46505;SDS011;32220;49.808;9.968;2022-07-09T12:47:16;2.67;;;1.77;;
46505;SDS011;32220;49.808;9.968;2022-07-09T12:49:45;1.90;;;1.80;;
46505;SDS011;32220;49.808;9.968;2022-07-09T12:52:13;1.97;;;1.80;;
46505;SDS011;32220;49.808;9.968;2022-07-09T12:54:41;1.90;;;1.80;;
46505;SDS011;32220;49.808;9.968;2022-07-09T12:57:09;1.80;;;1.70;;
46505;SDS011;32220;49.808;9.968;2022-07-09T12:59:37;2.10;;;1.50;;
46505;SDS011;32220;49.808;9.968;2022-07-09T13:02:05;1.60;;;1.50;;
46505;SDS011;32220;49.808;9.968;2022-07-09T13:04:33;1.50;;;1.40;;
46505;SDS011;32220;49.808;9.968;2022-07-09T13:07:03;1.83;;;1.73;;
46505;SDS011;32220;49.808;9.968;2022-07-09T13:09:31;1.97;;;1.83;;
46505;SDS011;32220;49.808;9.968;2022-07-09T13:12:00;2.13;;;1.70;;
46505;SDS011;32220;49.808;9.968;2022-07-09T13:14:27;2.17;;;1.97;;
46505;SDS011;32220;49.808;9.968;2022-07-09T13:16:55;1.70;;;1.60;;
46505;SDS011;32220;49.808;9.968;2022-07-09T13:19:24;1.70;;;1.60;;
46505;SDS011;32220;49.808;9.968;2022-07-09T13:21:52;1.70;;;1.60;;
46505;SDS011;32220;49.808;9.968;2022-07-09T13:24:21;1.70;;;1.60;;
46505;SDS011;32220;49.808;9.968;2022-07-09T13:26:49;1.87;;;1.77;;
46505;SDS011;32220;49.808;9.968;2022-07-09T13:29:17;1.63;;;1.50;;
46505;SDS011;32220;49.808;9.968;2022-07-09T13:31:46;2.33;;;1.80;;
46505;SDS011;32220;49.808;9.968;2022-07-09T13:34:13;3.10;;;1.83;;
46505;SDS011;32220;49.808;9.968;2022-07-09T13:36:41;1.73;;;1.63;;
46505;SDS011;32220;49.808;9.968;2022-07-09T13:39:09;1.73;;;1.53;;
46505;SDS011;32220;49.808;9.968;2022-07-09T13:41:38;2.10;;;1.80;;
46505;SDS011;32220;49.808;9.968;2022-07-09T13:44:06;2.00;;;1.80;;
46505;SDS011;32220;49.808;9.968;2022-07-09T13:46:34;3.03;;;1.67;;
46505;SDS011;32220;49.808;9.968;2022-07-09T13:49:02;1.83;;;1.60;;
46505;SDS011;32220;49.808;9.968;2022-07-09T13:51:30;1.77;;;1.67;;
46505;SDS011;32220;49.808;9.968;2022-07-09T13:53:59;1.80;;;1.53;;
46505;SDS011;32220;49.808;9.968;2022-07-09T13:56:27;1.80;;;1.70;;
46505;SDS011;32220;49.808;9.968;2022-07-09T13:58:56;1.73;;;1.63;;
46505;SDS011;32220;49.808;9.968;2022-07-09T14:01:24;1.50;;;1.40;;
46505;SDS011;32220;49.808;9.968;2022-07-09T14:03:52;1.33;;;1.23;;
46505;SDS011;32220;49.808;9.968;2022-07-09T14:06:20;2.70;;;1.70;;
46505;SDS011;32220;49.808;9.968;2022-07-09T14:08:49;1.63;;;1.53;;
46505;SDS011;32220;49.808;9.968;2022-07-09T14:11:16;2.80;;;1.60;;
46505;SDS011;32220;49.808;9.968;2022-07-09T14:13:44;1.93;;;1.70;;
46505;SDS011;32220;49.808;9.968;2022-07-09T14:16:16;1.80;;;1.70;;
46505;SDS011;32220;49.808;9.968;2022-07-09T14:18:44;1.70;;;1.60;;
46505;SDS011;32220;49.808;9.968;2022-07-09T14:21:12;1.47;;;1.37;;
46505;SDS011;32220;49.808;9.968;2022-07-09T14:23:39;1.67;;;1.57;;
46505;SDS011;32220;49.808;9.968;2022-07-09T14:26:07;1.87;;;1.60;;
46505;SDS011;32220;49.808;9.968;2022-07-09T14:28:35;1.70;;;1.60;;
46505;SDS011;32220;49.808;9.968;2022-07-09T14:31:03;1.47;;;1.37;;
46505;SDS011;32220;49.808;9.968;2022-07-09T14:33:32;1.70;;;1.60;;
46505;SDS011;32220;49.808;9.968;2022-07-09T14:36:00;1.63;;;1.53;;
46505;SDS011;32220;49.808;9.968;2022-07-09T14:38:28;1.80;;;1.70;;
46505;SDS011;32220;49.808;9.968;2022-07-09T14:40:56;1.87;;;1.77;;
46505;SDS011;32220;49.808;9.968;2022-07-09T14:43:23;1.40;;;1.30;;
46505;SDS011;32220;49.808;9.968;2022-07-09T14:45:53;1.37;;;1.30;;
46505;SDS011;32220;49.808;9.968;2022-07-09T14:48:20;1.83;;;1.73;;
46505;SDS011;32220;49.808;9.968;2022-07-09T14:50:50;1.37;;;1.27;;
46505;SDS011;32220;49.808;9.968;2022-07-09T14:53:19;1.40;;;1.30;;
46505;SDS011;32220;49.808;9.968;2022-07-09T14:55:46;1.47;;;1.37;;
46505;SDS011;32220;49.808;9.968;2022-07-09T14:58:14;1.67;;;1.30;;